Time;durP1;ratioP1;P1;durP2;ratioP2;P2;SDS_P1;SDS_P2;PMS_P1;PMS_P2;Temp;Humidity;BMP_temperature;BMP_pressure;BME280_temperature;BME280_humidity;BME280_pressure;Samples;Min_cycle;Max_cycle;Signal;HPM_P1;HPM_P2
2021/09/28 00:02:30;;;;;;;8.80;4.27;;;;;;;10.54;59.55;101209.69;126307;1099;104235;-80
2021/09/28 00:05:05;;;;;;;9.95;4.80;;;;;;;10.53;59.61;101220.12;126324;1098;104256;-79
2021/09/28 00:07:37;;;;;;;10.73;4.60;;;;;;;10.49;59.69;101213.84;126261;1099;104219;-79
2021/09/28 00:10:13;;;;;;;10.10;4.45;;;;;;;10.43;59.77;101222.30;126243;1099;104157;-80
2021/09/28 00:12:48;;;;;;;11.27;5.33;;;;;;;10.39;59.79;101222.08;126323;1099;104172;-80
2021/09/28 00:15:20;;;;;;;11.07;4.70;;;;;;;10.39;60.51;101219.45;126375;1098;104192;-79
2021/09/28 00:17:59;;;;;;;10.13;4.83;;;;;;;10.32;60.60;101215.63;126276;1099;104229;-79
2021/09/28 00:20:37;;;;;;;7.97;4.40;;;;;;;10.29;60.37;101228.59;126190;1099;104230;-78
2021/09/28 00:23:18;;;;;;;11.40;4.50;;;;;;;10.21;60.31;101233.45;126256;1099;104153;-79
2021/09/28 00:25:52;;;;;;;8.77;4.47;;;;;;;10.16;60.61;101229.72;126323;1097;104288;-79
2021/09/28 00:28:30;;;;;;;10.67;4.50;;;;;;;10.11;60.82;101222.44;126266;1099;104195;-79
2021/09/28 00:31:05;;;;;;;9.57;4.77;;;;;;;10.08;60.51;101221.48;126253;1099;104299;-80
2021/09/28 00:33:39;;;;;;;10.45;4.85;;;;;;;10.07;61.03;101213.53;126314;1099;104160;-81
2021/09/28 00:36:13;;;;;;;10.87;5.17;;;;;;;10.05;60.54;101217.78;126213;1099;104469;-79
2021/09/28 00:38:48;;;;;;;9.07;4.80;;;;;;;9.99;61.12;101221.02;126272;1099;104140;-79
2021/09/28 00:41:22;;;;;;;10.85;5.37;;;;;;;9.90;60.69;101217.94;126257;1099;104316;-80
2021/09/28 00:43:58;;;;;;;13.00;5.57;;;;;;;9.79;61.16;101219.14;126336;1099;104624;-79
2021/09/28 00:46:33;;;;;;;13.00;5.57;;;;;;;9.67;61.29;101220.29;126227;1099;104376;-79
2021/09/28 00:49:08;;;;;;;11.47;5.17;;;;;;;9.61;61.35;101224.33;126278;1099;104142;-80
2021/09/28 00:51:39;;;;;;;11.27;5.30;;;;;;;9.57;61.47;101219.73;126274;1099;104146;-79
2021/09/28 00:54:12;;;;;;;13.03;5.50;;;;;;;9.56;61.68;101221.47;126341;1098;104200;-80
2021/09/28 00:56:46;;;;;;;8.43;5.12;;;;;;;9.52;61.15;101223.05;126389;1099;104227;-79
2021/09/28 00:59:21;;;;;;;12.00;5.90;;;;;;;9.47;61.24;101223.61;126409;1098;104750;-79
2021/09/28 01:01:59;;;;;;;13.10;5.60;;;;;;;9.39;61.17;101224.95;126323;1099;102646;-80
2021/09/28 01:04:33;;;;;;;13.50;5.33;;;;;;;9.37;61.24;101221.36;126384;1099;104185;-79
2021/09/28 01:07:10;;;;;;;10.75;5.45;;;;;;;9.30;61.93;101222.73;126401;1099;104141;-80
2021/09/28 01:09:44;;;;;;;11.07;5.57;;;;;;;9.26;61.56;101224.30;125340;1099;104334;-80
2021/09/28 01:12:19;;;;;;;16.83;5.97;;;;;;;9.33;61.91;101215.04;125267;1099;104229;-79
2021/09/28 01:14:55;;;;;;;10.03;5.13;;;;;;;9.32;61.96;101221.12;125244;1099;104315;-78
2021/09/28 01:17:32;;;;;;;10.03;5.17;;;;;;;9.22;62.02;101221.44;125268;1099;104220;-78
2021/09/28 01:20:11;;;;;;;10.63;5.10;;;;;;;9.09;62.36;101217.28;125277;1099;104840;-78
2021/09/28 01:22:43;;;;;;;11.87;5.33;;;;;;;8.97;61.81;101221.02;125327;1099;104134;-79
2021/09/28 01:25:16;;;;;;;10.77;5.40;;;;;;;8.89;62.48;101222.34;125348;1100;104433;-79
2021/09/28 01:27:52;;;;;;;9.70;5.20;;;;;;;8.76;63.05;101219.89;125313;1102;104344;-80
2021/09/28 01:30:37;;;;;;;10.00;5.27;;;;;;;8.64;62.53;101218.38;125289;1099;104404;-80
2021/09/28 01:33:15;;;;;;;8.77;5.27;;;;;;;8.56;62.72;101211.84;125354;1099;112207;-80
2021/09/28 01:35:59;;;;;;;13.70;5.00;;;;;;;8.54;63.23;101210.86;125411;1099;104300;-80
2021/09/28 01:38:35;;;;;;;9.98;4.92;;;;;;;8.50;63.20;101216.73;125361;1099;104225;-80
2021/09/28 01:41:06;;;;;;;10.50;4.97;;;;;;;8.48;63.69;101218.37;125501;1099;104177;-79
2021/09/28 01:43:41;;;;;;;8.70;4.77;;;;;;;8.45;63.58;101216.47;126249;1099;104338;-78
2021/09/28 01:46:15;;;;;;;9.70;4.70;;;;;;;8.48;63.86;101220.98;126285;1099;104182;-79
2021/09/28 01:48:52;;;;;;;8.27;4.60;;;;;;;8.48;63.68;101206.98;125327;1099;104168;-80
2021/09/28 01:51:25;;;;;;;11.93;5.20;;;;;;;8.47;64.19;101205.20;125316;1099;104222;-80
2021/09/28 01:54:02;;;;;;;12.57;5.67;;;;;;;8.46;64.57;101204.28;125249;1099;103355;-79
2021/09/28 01:56:32;;;;;;;;;;;;;;;8.39;64.49;101205.63;125333;1099;104153;-79
2021/09/28 01:59:06;;;;;;;11.65;5.20;;;;;;;8.34;64.81;101203.59;125278;1099;104669;-79
2021/09/28 02:01:40;;;;;;;12.20;5.60;;;;;;;8.28;65.24;101202.42;125226;1099;104204;-79
2021/09/28 02:04:13;;;;;;;11.23;4.83;;;;;;;8.25;65.37;101206.59;125286;1099;104184;-80
2021/09/28 02:06:48;;;;;;;9.33;5.10;;;;;;;8.20;64.44;101208.05;125347;1098;104156;-79
2021/09/28 02:09:23;;;;;;;12.10;5.27;;;;;;;8.17;64.64;101211.38;125294;1099;104284;-79
2021/09/28 02:11:58;;;;;;;9.63;5.37;;;;;;;8.14;64.68;101198.13;125330;1099;104272;-79
2021/09/28 02:14:30;;;;;;;10.40;5.10;;;;;;;8.10;64.91;101198.76;125379;1099;104197;-80
2021/09/28 02:17:05;;;;;;;12.00;5.23;;;;;;;8.05;65.22;101201.11;125442;1099;104291;-78
2021/09/28 02:19:45;;;;;;;11.30;5.37;;;;;;;8.04;64.98;101195.80;125335;1099;103700;-78
2021/09/28 02:22:23;;;;;;;11.10;5.10;;;;;;;8.04;65.09;101193.19;126235;1099;104245;-79
2021/09/28 02:24:55;;;;;;;9.53;5.10;;;;;;;8.03;65.14;101202.75;126222;1099;104197;-79
2021/09/28 02:27:30;;;;;;;10.63;5.13;;;;;;;8.02;65.24;101200.94;126203;1099;104274;-79
2021/09/28 02:30:04;;;;;;;10.80;5.33;;;;;;;8.00;65.55;101199.96;126241;1099;104231;-80
2021/09/28 02:32:41;;;;;;;10.67;5.23;;;;;;;8.01;65.36;101198.23;126175;1099;104328;-79
2021/09/28 02:35:19;;;;;;;10.33;4.97;;;;;;;8.04;65.49;101201.02;126300;1099;104153;-78
2021/09/28 02:37:56;;;;;;;10.33;5.27;;;;;;;8.04;65.83;101198.41;126210;1098;104144;-79
2021/09/28 02:40:34;;;;;;;9.53;5.00;;;;;;;8.05;65.68;101200.22;126287;1099;104293;-78
2021/09/28 02:43:08;;;;;;;9.33;5.00;;;;;;;8.03;65.42;101201.86;126223;1099;102317;-79
2021/09/28 02:45:47;;;;;;;11.40;5.40;;;;;;;8.03;65.40;101201.86;126206;1099;104172;-79
2021/09/28 02:48:22;;;;;;;10.10;4.93;;;;;;;8.06;65.49;101204.65;126205;1099;104291;-80
2021/09/28 02:50:59;;;;;;;21.63;6.30;;;;;;;8.11;65.82;101205.80;126278;1099;104162;-80
2021/09/28 02:53:41;;;;;;;12.20;5.17;;;;;;;8.15;65.77;101196.41;126190;1099;104201;-78
2021/09/28 02:56:14;;;;;;;9.83;5.40;;;;;;;8.13;65.61;101198.05;126201;1099;104233;-79
2021/09/28 02:58:53;;;;;;;12.07;5.30;;;;;;;8.10;66.01;101202.30;126279;1099;104146;-79
2021/09/28 03:01:27;;;;;;;12.83;5.70;;;;;;;8.06;66.08;101196.81;126297;1099;104185;-79
2021/09/28 03:04:07;;;;;;;10.07;5.20;;;;;;;8.05;65.96;101198.50;126200;1099;104159;-78
2021/09/28 03:06:43;;;;;;;10.03;5.27;;;;;;;8.06;66.20;101199.42;126270;1099;104143;-80
2021/09/28 03:09:16;;;;;;;9.83;4.93;;;;;;;8.06;66.44;101192.47;126253;1099;104223;-81
2021/09/28 03:11:47;;;;;;;10.47;5.30;;;;;;;8.14;66.26;101197.24;126270;1099;104297;-82
2021/09/28 03:14:22;;;;;;;12.90;5.70;;;;;;;8.14;65.99;101200.75;126301;1099;104191;-83
2021/09/28 03:16:55;;;;;;;10.50;5.10;;;;;;;8.13;65.91;101206.78;126299;1099;104377;-82
2021/09/28 03:19:28;;;;;;;14.15;5.40;;;;;;;8.12;66.21;101196.23;126271;1099;104213;-82
2021/09/28 03:21:59;;;;;;;11.13;5.30;;;;;;;8.16;66.10;101190.38;126271;1099;104281;-82
2021/09/28 03:24:29;;;;;;;9.67;5.23;;;;;;;8.20;66.41;101195.86;126226;1099;104272;-81
2021/09/28 03:27:00;;;;;;;8.93;5.10;;;;;;;8.23;66.42;101200.38;126361;1098;104214;-82
2021/09/28 03:29:31;;;;;;;11.73;5.53;;;;;;;8.25;66.67;101203.97;126326;1098;104219;-83
2021/09/28 03:32:01;;;;;;;16.83;5.70;;;;;;;8.29;66.13;101198.11;126377;1099;104165;-82
2021/09/28 03:34:32;;;;;;;9.93;5.20;;;;;;;8.32;66.43;101205.20;126306;1099;104262;-82
2021/09/28 03:37:02;;;;;;;11.70;5.50;;;;;;;8.31;66.82;101208.66;126302;1099;104162;-82
2021/09/28 03:39:33;;;;;;;10.47;5.70;;;;;;;8.31;66.62;101213.89;126366;1099;104297;-82
2021/09/28 03:42:05;;;;;;;14.60;5.43;;;;;;;8.33;66.48;101197.45;126352;1099;104277;-81
2021/09/28 03:44:35;;;;;;;16.73;5.77;;;;;;;8.37;66.61;101217.73;126304;1099;104248;-81
2021/09/28 03:47:06;;;;;;;18.37;6.30;;;;;;;8.40;66.80;101209.17;126338;1099;104144;-82
2021/09/28 03:49:37;;;;;;;11.30;6.10;;;;;;;8.37;66.30;101209.89;126333;1099;104306;-81
2021/09/28 03:52:09;;;;;;;12.43;5.97;;;;;;;8.34;66.68;101211.44;126330;1098;104329;-82
2021/09/28 03:54:39;;;;;;;13.53;5.73;;;;;;;8.34;66.94;101212.33;126278;1099;104230;-81
2021/09/28 03:57:10;;;;;;;10.50;5.30;;;;;;;8.34;66.23;101211.44;126334;1099;105332;-82
2021/09/28 03:59:41;;;;;;;14.57;5.87;;;;;;;8.31;66.62;101208.66;126317;1099;104350;-81
2021/09/28 04:02:11;;;;;;;11.60;5.40;;;;;;;8.27;66.72;101208.48;126310;1099;104676;-81
2021/09/28 04:04:42;;;;;;;11.43;5.50;;;;;;;8.28;66.35;101210.27;126284;1099;104227;-82
2021/09/28 04:07:13;;;;;;;12.13;5.80;;;;;;;8.27;66.76;101208.48;126252;1098;104364;-82
2021/09/28 04:09:44;;;;;;;13.65;5.95;;;;;;;8.27;66.45;101216.33;126358;1099;104152;-82
2021/09/28 04:12:18;;;;;;;10.77;5.73;;;;;;;8.22;67.06;101222.98;126369;1098;104169;-82
2021/09/28 04:14:53;;;;;;;11.65;5.60;;;;;;;8.09;67.08;101223.13;126209;1099;104223;-82
2021/09/28 04:17:26;;;;;;;12.80;6.00;;;;;;;7.97;66.85;101233.76;126323;1098;104159;-81
2021/09/28 04:19:57;;;;;;;12.73;6.60;;;;;;;7.88;66.99;101225.38;126331;1099;104165;-83
2021/09/28 04:22:28;;;;;;;13.40;6.27;;;;;;;7.78;67.09;101233.52;126260;1099;104242;-83
2021/09/28 04:24:58;;;;;;;14.83;7.63;;;;;;;7.70;67.71;101230.45;126291;1099;104251;-82
2021/09/28 04:27:29;;;;;;;17.63;9.60;;;;;;;7.62;67.94;101236.91;126202;1099;104185;-81
2021/09/28 04:30:00;;;;;;;20.97;11.27;;;;;;;7.52;68.53;101236.36;126217;1099;104284;-79
2021/09/28 04:32:30;;;;;;;22.27;12.73;;;;;;;7.45;67.87;101242.05;126208;1099;104179;-80
2021/09/28 04:35:02;;;;;;;24.97;14.47;;;;;;;7.39;68.20;101236.45;126110;1098;104265;-80
2021/09/28 04:37:33;;;;;;;24.63;15.50;;;;;;;7.33;68.04;101233.47;126216;1099;104150;-80
2021/09/28 04:40:09;;;;;;;22.97;13.47;;;;;;;7.30;67.79;101234.17;126074;1099;104318;-81
2021/09/28 04:42:44;;;;;;;24.47;13.33;;;;;;;7.40;68.04;101239.95;126200;1099;104200;-80
2021/09/28 04:45:18;;;;;;;21.20;12.00;;;;;;;7.45;68.19;101238.52;126259;1099;104153;-81
2021/09/28 04:47:53;;;;;;;21.60;11.77;;;;;;;7.44;68.65;101239.34;126294;1099;104185;-81
2021/09/28 04:50:25;;;;;;;21.23;11.50;;;;;;;7.46;68.28;101241.22;126353;1099;104600;-81
2021/09/28 04:52:57;;;;;;;22.57;11.63;;;;;;;7.51;68.45;101242.42;126251;1099;104185;-80
2021/09/28 04:55:29;;;;;;;20.13;10.57;;;;;;;7.59;68.45;101242.88;126191;1099;104203;-81
2021/09/28 04:58:00;;;;;;;21.53;11.40;;;;;;;7.67;68.34;101248.56;126126;1099;104230;-81
2021/09/28 05:00:32;;;;;;;22.20;11.93;;;;;;;7.72;68.28;101249.72;126188;1099;104217;-81
2021/09/28 05:03:11;;;;;;;19.43;11.00;;;;;;;7.78;68.54;101251.80;126255;1098;104288;-80
2021/09/28 05:05:54;;;;;;;21.30;11.63;;;;;;;7.86;68.93;101253.15;126213;1099;103980;-80
2021/09/28 05:08:43;;;;;;;20.93;11.27;;;;;;;7.96;68.96;101251.97;125369;1099;104201;-78
2021/09/28 05:12:08;;;;;;;23.67;10.70;;;;;;;8.05;68.45;101257.73;125207;1102;104348;-80
2021/09/28 05:15:03;;;;;;;19.20;9.47;;;;;;;8.05;68.51;101258.62;125057;1102;104354;-79
2021/09/28 05:17:37;;;;;;;19.93;9.10;;;;;;;8.13;68.86;101250.33;125208;1102;118848;-79
2021/09/28 05:20:10;;;;;;;19.33;9.17;;;;;;;8.20;68.89;101253.38;124927;1105;104335;-79
2021/09/28 05:22:44;;;;;;;21.13;9.20;;;;;;;8.26;68.65;101256.35;125204;1102;104213;-79
2021/09/28 05:25:20;;;;;;;18.73;7.90;;;;;;;8.33;68.91;101254.98;124987;1102;104338;-79
2021/09/28 05:27:56;;;;;;;17.83;8.13;;;;;;;8.37;68.92;101254.34;125248;1102;104194;-79
2021/09/28 05:30:29;;;;;;;18.30;7.40;;;;;;;8.41;68.66;101258.95;125216;1102;104300;-79
2021/09/28 05:33:00;;;;;;;17.33;7.27;;;;;;;8.45;69.02;101270.51;125194;1102;104194;-80
2021/09/28 05:35:32;;;;;;;17.23;7.10;;;;;;;8.48;69.10;101268.06;125172;1103;104737;-80
2021/09/28 05:38:04;;;;;;;15.00;6.67;;;;;;;8.56;69.01;101269.39;125090;1102;104157;-80
2021/09/28 05:40:37;;;;;;;15.30;6.80;;;;;;;8.69;69.32;101268.34;125223;1102;104617;-82
2021/09/28 05:43:10;;;;;;;17.63;7.60;;;;;;;8.86;68.88;101276.25;125198;1102;104432;-81
2021/09/28 05:45:45;;;;;;;19.27;7.57;;;;;;;8.95;68.68;101280.26;125260;1101;104380;-81
2021/09/28 05:48:18;;;;;;;18.93;6.97;;;;;;;9.07;68.62;101279.11;125137;1102;104434;-80
2021/09/28 05:50:50;;;;;;;18.87;7.03;;;;;;;9.20;68.87;101276.36;126056;1099;104146;-81
2021/09/28 05:53:25;;;;;;;16.83;7.27;;;;;;;9.34;68.71;101277.98;126230;1099;104149;-79
2021/09/28 05:56:00;;;;;;;16.90;7.17;;;;;;;9.45;68.66;101283.79;126262;1099;104270;-81
2021/09/28 05:58:32;;;;;;;19.13;7.70;;;;;;;9.52;68.87;101285.00;126103;1099;107509;-81
2021/09/28 06:01:05;;;;;;;20.17;8.07;;;;;;;9.63;68.67;101289.11;126130;1098;102017;-80
2021/09/28 06:03:40;;;;;;;20.07;7.63;;;;;;;9.78;68.57;101290.71;126001;1099;102227;-80
2021/09/28 06:06:29;;;;;;;15.00;7.30;;;;;;;9.96;68.71;101290.77;126139;1099;102862;-80
2021/09/28 06:09:04;;;;;;;15.13;6.73;;;;;;;10.11;68.79;101290.63;126114;1099;117825;-79
2021/09/28 06:11:37;;;;;;;14.57;6.90;;;;;;;10.21;68.92;101285.91;126172;1099;104377;-80
2021/09/28 06:14:10;;;;;;;19.13;6.77;;;;;;;10.34;68.51;101287.45;126129;1099;101776;-80
2021/09/28 06:16:42;;;;;;;19.33;6.33;;;;;;;10.43;68.92;101290.52;126170;1099;104213;-79
2021/09/28 06:19:20;;;;;;;14.20;6.55;;;;;;;10.50;68.13;101282.95;126112;1099;104249;-80
2021/09/28 06:21:51;;;;;;;19.40;7.20;;;;;;;10.55;68.24;101287.61;126235;1099;104220;-79
2021/09/28 06:24:24;;;;;;;19.80;8.20;;;;;;;10.58;68.70;101287.75;126185;1098;104207;-79
2021/09/28 06:26:57;;;;;;;20.47;8.53;;;;;;;10.60;68.53;101279.95;126141;1099;104166;-79
2021/09/28 06:29:36;;;;;;;22.40;7.37;;;;;;;10.62;68.00;101288.80;125896;1099;111068;-79
2021/09/28 06:32:08;;;;;;;18.33;7.97;;;;;;;10.65;67.98;101285.42;126096;1099;104271;-78
2021/09/28 06:34:40;;;;;;;17.60;7.83;;;;;;;10.73;68.33;101286.69;126147;1099;104303;-79
2021/09/28 06:37:14;;;;;;;20.73;7.80;;;;;;;10.79;68.37;101277.36;125998;1099;104178;-79
2021/09/28 06:39:46;;;;;;;21.33;8.10;;;;;;;10.88;68.19;101274.28;125902;1099;104174;-79
2021/09/28 06:42:22;;;;;;;19.63;8.27;;;;;;;10.97;68.21;101276.45;126231;1099;104191;-78
2021/09/28 06:44:55;;;;;;;20.90;8.60;;;;;;;11.06;68.17;101282.09;126107;1099;104284;-77
2021/09/28 06:47:28;;;;;;;25.20;8.70;;;;;;;11.18;68.16;101283.52;126042;1099;104169;-78
2021/09/28 06:49:59;;;;;;;18.53;8.17;;;;;;;11.26;67.98;101276.88;126204;1098;107750;-78
2021/09/28 06:52:34;;;;;;;25.00;8.00;;;;;;;11.34;67.92;101280.73;126143;1099;104134;-79
2021/09/28 06:55:08;;;;;;;20.40;7.90;;;;;;;11.44;67.78;101284.70;126249;1099;104191;-78
2021/09/28 06:57:41;;;;;;;21.47;8.20;;;;;;;11.51;67.94;101282.41;126177;1098;104153;-79
2021/09/28 07:00:14;;;;;;;22.15;8.83;;;;;;;11.63;67.81;101291.66;126288;1099;118455;-78
2021/09/28 07:02:47;;;;;;;19.15;8.33;;;;;;;11.73;67.66;101288.58;126274;1098;104138;-78
2021/09/28 07:05:20;;;;;;;22.50;8.67;;;;;;;11.86;67.58;101290.03;126159;1099;104192;-77
2021/09/28 07:07:54;;;;;;;24.57;9.23;;;;;;;11.98;67.59;101293.23;126185;1099;104265;-79
2021/09/28 07:10:27;;;;;;;22.73;8.40;;;;;;;12.11;67.45;101296.38;126119;1099;104149;-79
2021/09/28 07:13:00;;;;;;;23.73;8.17;;;;;;;12.24;67.34;101288.14;126235;1098;104146;-78
2021/09/28 07:15:33;;;;;;;18.30;8.40;;;;;;;12.40;67.17;101285.32;126190;1099;104149;-78
2021/09/28 07:18:06;;;;;;;19.93;8.50;;;;;;;12.53;67.33;101291.09;126156;1099;104192;-79
2021/09/28 07:20:39;;;;;;;23.13;8.23;;;;;;;12.69;67.43;101287.32;126292;1097;104162;-76
2021/09/28 07:23:13;;;;;;;23.20;8.00;;;;;;;12.85;67.08;101292.34;125969;1097;104144;-76
2021/09/28 07:25:49;;;;;;;18.80;7.08;;;;;;;12.98;65.83;101290.18;126008;1099;104165;-78
2021/09/28 07:28:20;;;;;;;24.47;7.87;;;;;;;13.02;65.77;101292.11;126086;1099;104271;-76
2021/09/28 07:30:55;;;;;;;14.50;6.65;;;;;;;13.15;66.33;101283.84;125937;1098;104178;-79
2021/09/28 07:33:30;;;;;;;15.45;6.42;;;;;;;13.31;65.95;101285.30;126025;1099;104293;-78
2021/09/28 07:36:06;;;;;;;16.80;7.23;;;;;;;13.44;65.90;101294.59;126116;1099;104258;-79
2021/09/28 07:38:40;;;;;;;15.27;5.80;;;;;;;13.54;66.06;101288.81;125999;1099;104230;-78
2021/09/28 07:41:13;;;;;;;13.07;5.93;;;;;;;13.68;65.56;101291.03;126009;1099;107806;-76
2021/09/28 07:43:45;;;;;;;14.97;6.30;;;;;;;13.83;64.97;101286.30;125976;1099;104265;-75
2021/09/28 07:46:19;;;;;;;15.50;6.00;;;;;;;13.96;64.78;101283.26;126032;1099;104156;-76
2021/09/28 07:48:52;;;;;;;11.80;4.67;;;;;;;14.11;65.27;101285.50;126201;1099;104265;-78
2021/09/28 07:51:23;;;;;;;8.83;4.83;;;;;;;14.18;63.54;101281.34;126348;1099;104213;-78
2021/09/28 07:53:55;;;;;;;7.57;4.40;;;;;;;14.36;64.45;101284.56;126124;1099;104393;-79
2021/09/28 07:56:27;;;;;;;11.63;4.70;;;;;;;14.54;63.71;101276.36;126017;1099;104354;-77
2021/09/28 07:59:07;;;;;;;10.58;4.50;;;;;;;14.63;62.51;101281.08;126088;1097;104184;-78
2021/09/28 08:01:39;;;;;;;11.27;4.67;;;;;;;14.75;63.23;101277.91;126230;1099;104264;-79
2021/09/28 08:04:12;;;;;;;15.53;5.10;;;;;;;14.90;63.56;101278.38;126179;1099;104198;-77
2021/09/28 08:06:45;;;;;;;10.58;4.70;;;;;;;14.92;60.79;101279.31;126224;1099;104149;-77
2021/09/28 08:09:17;;;;;;;9.63;4.57;;;;;;;14.92;61.78;101281.07;126146;1099;104162;-77
2021/09/28 08:11:52;;;;;;;;;;;;;;;14.99;61.44;101284.78;126184;1099;104252;-77
2021/09/28 08:14:27;;;;;;;12.20;4.93;;;;;;;15.08;61.97;101283.34;126182;1099;104194;-77
2021/09/28 08:17:00;;;;;;;10.00;5.23;;;;;;;15.09;59.90;101285.11;126161;1099;104272;-79
2021/09/28 08:19:38;;;;;;;14.60;5.65;;;;;;;15.15;61.60;101279.12;126272;1099;104255;-78
2021/09/28 08:22:16;;;;;;;7.17;3.40;;;;;;;15.24;58.72;101278.50;126128;1098;104326;-79
2021/09/28 08:24:54;;;;;;;7.20;3.73;;;;;;;15.34;60.18;101279.66;126234;1097;104175;-77
2021/09/28 08:30:14;;;;;;;6.50;3.93;;;;;;;15.43;59.42;101285.20;126248;1099;104143;-79
2021/09/28 08:32:51;;;;;;;9.90;4.50;;;;;;;15.60;58.61;101283.04;126132;1099;108093;-79
2021/09/28 08:35:25;;;;;;;9.00;4.40;;;;;;;15.70;59.92;101284.17;126290;1099;104284;-78
2021/09/28 08:37:58;;;;;;;6.70;3.63;;;;;;;15.71;58.10;101285.98;126144;1099;104141;-77
2021/09/28 08:40:31;;;;;;;5.80;3.53;;;;;;;15.56;57.06;101283.80;126167;1099;104365;-79
2021/09/28 08:43:04;;;;;;;7.87;3.37;;;;;;;15.51;56.28;101282.78;126246;1099;117899;-79
2021/09/28 08:45:38;;;;;;;5.63;3.40;;;;;;;15.48;56.06;101286.22;126143;1097;104262;-78
2021/09/28 08:48:15;;;;;;;7.30;3.90;;;;;;;15.55;54.87;101284.64;126038;1099;104251;-77
2021/09/28 08:50:49;;;;;;;8.13;3.80;;;;;;;15.72;56.67;101280.73;126050;1099;104165;-78
2021/09/28 08:53:24;;;;;;;10.37;3.60;;;;;;;15.94;56.96;101271.64;126314;1099;104249;-79
2021/09/28 08:56:00;;;;;;;7.37;3.60;;;;;;;16.16;57.48;101270.42;126290;1099;104139;-78
2021/09/28 08:58:34;;;;;;;9.60;3.57;;;;;;;16.25;55.79;101268.86;126188;1099;104701;-78
2021/09/28 09:04:29;;;;;;;6.10;3.30;;;;;;;16.47;55.45;101268.53;126419;1099;110764;-79
2021/09/28 09:07:00;;;;;;;6.80;2.80;;;;;;;16.49;53.74;101269.45;126297;1099;104166;-77
2021/09/28 09:09:47;;;;;;;5.20;3.17;;;;;;;16.49;52.75;101272.10;126042;1099;104313;-77
2021/09/28 09:12:34;;;;;;;4.77;2.90;;;;;;;16.44;52.81;101278.14;126118;1099;104149;-77
2021/09/28 09:15:28;;;;;;;4.90;3.00;;;;;;;16.33;53.55;101273.50;126256;1099;104223;-77
2021/09/28 09:18:05;;;;;;;4.97;2.97;;;;;;;16.34;53.72;101272.61;126192;1099;104281;-76
2021/09/28 09:20:43;;;;;;;5.50;3.10;;;;;;;16.50;53.13;101268.61;126250;1099;104258;-77
2021/09/28 09:23:27;;;;;;;4.30;3.20;;;;;;;16.60;52.30;101271.47;126180;1099;104306;-78
2021/09/28 09:26:05;;;;;;;10.83;3.33;;;;;;;16.81;52.81;101266.67;126122;1099;104143;-78
2021/09/28 09:28:40;;;;;;;5.20;3.10;;;;;;;16.91;52.87;101264.22;126230;1098;104162;-78
2021/09/28 09:31:18;;;;;;;7.60;3.27;;;;;;;16.88;53.20;101273.02;126215;1099;104162;-77
2021/09/28 09:33:54;;;;;;;7.53;2.93;;;;;;;16.72;52.15;101271.76;126156;1099;104134;-77
2021/09/28 09:36:29;;;;;;;7.13;2.80;;;;;;;16.78;53.24;101268.33;126249;1099;104212;-79
2021/09/28 09:39:02;;;;;;;;;;;;;;;16.93;47.46;101275.78;126146;1099;104147;-77
2021/09/28 09:41:39;;;;;;;3.23;2.50;;;;;;;16.98;51.43;101268.81;126296;1099;104677;-79
2021/09/28 09:44:12;;;;;;;5.40;2.47;;;;;;;17.02;51.23;101265.38;126294;1097;104220;-79
2021/09/28 09:46:51;;;;;;;3.37;2.43;;;;;;;17.02;50.84;101270.67;126234;1099;104302;-79
2021/09/28 09:49:30;;;;;;;4.25;2.77;;;;;;;17.15;51.57;101263.87;126255;1099;104146;-79
2021/09/28 09:52:10;;;;;;;4.33;2.60;;;;;;;17.21;47.40;101266.65;126005;1099;104307;-78
2021/09/28 09:54:44;;;;;;;3.73;2.57;;;;;;;17.28;50.38;101272.97;126247;1096;104258;-77
2021/09/28 09:57:19;;;;;;;6.03;2.40;;;;;;;17.39;50.51;101263.45;126104;1099;104140;-78
2021/09/28 09:59:52;;;;;;;2.60;2.37;;;;;;;17.46;50.22;101262.72;126242;1096;104137;-77
2021/09/28 10:02:26;;;;;;;4.93;2.60;;;;;;;17.56;50.12;101256.75;126052;1098;104333;-77
2021/09/28 10:04:57;;;;;;;;;;;;;;;17.55;46.75;101259.38;126226;1099;104150;-76
2021/09/28 10:07:30;;;;;;;3.93;2.60;;;;;;;17.55;48.72;101260.25;125935;1099;104236;-77
2021/09/28 10:10:03;;;;;;;4.57;2.90;;;;;;;17.54;48.97;101266.41;126109;1098;104185;-77
2021/09/28 10:12:45;;;;;;;5.22;3.10;;;;;;;17.60;49.23;101265.64;125893;1099;104232;-79
2021/09/28 10:15:20;;;;;;;3.47;2.70;;;;;;;17.47;48.58;101260.95;126031;1099;104396;-79
2021/09/28 10:18:05;;;;;;;6.37;2.70;;;;;;;17.47;48.80;101258.30;125901;1099;104217;-79
2021/09/28 10:20:46;;;;;;;7.03;2.50;;;;;;;17.47;49.12;101260.95;125971;1099;104149;-79
2021/09/28 10:23:21;;;;;;;5.47;3.00;;;;;;;17.54;49.03;101265.53;126002;1099;104092;-78
2021/09/28 10:26:13;;;;;;;2.97;2.37;;;;;;;17.53;48.67;101266.38;126203;1099;104255;-77
2021/09/28 10:28:45;;;;;;;5.03;2.10;;;;;;;17.56;48.58;101262.05;126108;1099;117875;-79
2021/09/28 10:31:33;;;;;;;2.87;2.27;;;;;;;17.56;47.94;101259.40;126081;1099;104146;-78
2021/09/28 10:34:08;;;;;;;4.13;2.40;;;;;;;17.49;47.95;101256.59;126117;1099;104268;-79
2021/09/28 10:36:55;;;;;;;7.07;2.47;;;;;;;17.52;48.05;101256.66;125907;1098;104233;-77
2021/09/28 10:39:41;;;;;;;3.00;2.20;;;;;;;17.57;48.60;101265.59;125900;1099;104300;-79
2021/09/28 10:42:12;;;;;;;5.03;2.97;;;;;;;17.72;48.34;101260.57;126080;1099;104283;-77
2021/09/28 10:44:50;;;;;;;4.37;2.90;;;;;;;17.72;47.84;101262.34;126031;1099;104329;-77
2021/09/28 10:47:48;;;;;;;8.13;4.30;;;;;;;17.73;48.18;101256.15;126051;1099;104165;-76
2021/09/28 10:50:35;;;;;;;4.50;2.90;;;;;;;17.56;47.69;101253.17;126277;1099;104194;-77
2021/09/28 10:53:07;;;;;;;9.93;3.67;;;;;;;17.51;48.09;101260.16;126182;1099;104156;-78
2021/09/28 10:55:54;;;;;;;7.37;2.93;;;;;;;17.52;47.90;101262.84;126337;1098;104146;-78
2021/09/28 10:58:29;;;;;;;5.93;3.07;;;;;;;17.56;48.24;101264.70;126218;1099;104226;-77
2021/09/28 11:01:15;;;;;;;5.33;2.70;;;;;;;17.52;48.27;101262.84;126217;1099;104162;-76
2021/09/28 11:04:02;;;;;;;6.63;2.93;;;;;;;17.47;48.23;101263.61;126298;1098;104181;-79
2021/09/28 11:06:56;;;;;;;6.53;3.00;;;;;;;17.40;47.96;101265.25;126209;1099;104297;-80
2021/09/28 11:09:42;;;;;;;4.47;2.57;;;;;;;17.30;47.02;101265.95;126203;1099;118934;-77
2021/09/28 11:12:18;;;;;;;4.60;2.87;;;;;;;17.38;47.89;101261.69;126108;1099;104159;-80
2021/09/28 11:14:51;;;;;;;5.93;2.70;;;;;;;17.53;47.66;101259.34;126091;1099;104171;-79
2021/09/28 11:17:36;;;;;;;5.83;2.47;;;;;;;17.65;47.70;101257.77;126094;1099;104185;-77
2021/09/28 11:20:22;;;;;;;3.50;2.37;;;;;;;17.77;47.49;101250.04;126079;1099;104188;-78
2021/09/28 11:22:59;;;;;;;4.10;2.63;;;;;;;17.83;46.93;101250.16;126054;1099;104242;-78
2021/09/28 11:25:33;;;;;;;6.20;2.80;;;;;;;17.77;47.41;101253.58;126040;1099;104306;-78
2021/09/28 11:28:07;;;;;;;5.00;2.70;;;;;;;17.53;46.18;101250.46;126031;1099;104245;-78
2021/09/28 11:30:51;;;;;;;4.87;2.80;;;;;;;17.43;46.63;101255.59;126146;1099;104265;-76
2021/09/28 11:33:26;;;;;;;3.20;2.43;;;;;;;17.33;46.88;101256.29;126102;1097;104271;-77
2021/09/28 11:36:02;;;;;;;6.70;3.00;;;;;;;17.21;47.03;101251.63;126257;1099;104553;-76
2021/09/28 11:38:36;;;;;;;5.17;2.90;;;;;;;17.18;47.26;101255.98;126168;1099;104303;-77
2021/09/28 11:41:11;;;;;;;6.40;3.12;;;;;;;17.04;47.17;101259.22;126278;1099;104188;-79
2021/09/28 11:43:47;;;;;;;6.27;2.77;;;;;;;16.91;46.55;101253.62;126223;1099;104156;-77
2021/09/28 11:46:24;;;;;;;5.33;3.00;;;;;;;16.77;46.42;101256.84;126182;1099;104226;-78
2021/09/28 11:48:56;;;;;;;;;;;;;;;16.68;46.43;101253.98;126101;1098;104256;-77
2021/09/28 11:51:32;;;;;;;4.27;2.77;;;;;;;16.63;46.64;101261.83;126100;1099;104252;-79
2021/09/28 11:54:09;;;;;;;4.23;2.60;;;;;;;16.56;45.51;101262.53;126079;1099;104195;-78